GMME/RBA METAR and TAF weather

Enter ICAO airport designator
Station Type Date Time Source
GMME METAR 2018/04/27 01:00 UTC NOAA

GMME 270100Z 00000KT 3200 1200 R21/P1500D SCT010 13/12 Q1016 NOSIG


Station Type Date Time Source
GMME Decoded METAR 2018/04/27 01:00 UTC NOAA

Rabat-Sale, Morocco (GMME) 34-03N 006-46W 75M
Apr 26, 2018 - 09:00 PM EDT / 2018.04.27 0100 UTC
Wind: Calm:0
Visibility: 1 mile(s):0
Sky conditions: partly cloudy
Temperature: 55 F (13 C)
Dew Point: 53 F (12 C)
Relative Humidity: 93%
Pressure (altimeter): 30.00 in. Hg (1016 hPa)
ob: GMME 270100Z 00000KT 3200 1200 R21/P1500D SCT010 13/12 Q1016 NOSIG
cycle: 1

Station Type Date Time Source
GMME TAF 2018/04/26 18:18 UTC NOAA

TAF GMME 261700Z 2618/2800 32006KT 8000 SCT020 PROB40
TEMPO 2618/2706 VRB02KT 3000 BR SCT008 SCT015
BECMG 2706/2710 14010KT 8000 SCT020 SCT090


Example: see airport list